createdAt,value
2023-05-02T00:00:55.536Z,100146.53
2023-05-02T00:03:58.699Z,100147.72
2023-05-02T00:07:01.766Z,100141.31
2023-05-02T00:10:06.089Z,100142.63
2023-05-02T00:13:08.724Z,100134.00
2023-05-02T00:16:11.799Z,100142.94
2023-05-02T00:19:15.045Z,100135.94
2023-05-02T00:22:17.798Z,100137.66
2023-05-02T00:25:20.585Z,100141.41
2023-05-02T00:28:23.577Z,100141.06
2023-05-02T00:31:26.380Z,100145.06
2023-05-02T00:34:30.867Z,100140.22
2023-05-02T00:37:33.361Z,100142.88
2023-05-02T00:40:47.812Z,100147.28
2023-05-02T00:43:50.547Z,100144.88
2023-05-02T00:46:54.637Z,100137.78
2023-05-02T00:49:57.912Z,100142.06
2023-05-02T00:53:01.151Z,100142.56
2023-05-02T00:56:03.762Z,100139.28
2023-05-02T00:59:08.896Z,100144.44
2023-05-02T01:02:53.530Z,100144.47
2023-05-02T01:06:10.645Z,100143.78
2023-05-02T01:09:27.393Z,100145.72
2023-05-02T01:12:41.097Z,100146.75
2023-05-02T01:15:45.856Z,100147.72
2023-05-02T01:18:50.646Z,100145.91
2023-05-02T01:21:55.080Z,100138.81
2023-05-02T01:25:16.820Z,100133.50
2023-05-02T01:28:38.805Z,100134.34
2023-05-02T01:31:46.450Z,100139.56
2023-05-02T01:34:52.394Z,100142.88
2023-05-02T01:37:57.646Z,100134.91
2023-05-02T01:41:05.164Z,100131.78
2023-05-02T01:44:09.819Z,100128.97
2023-05-02T01:47:13.565Z,100134.69
2023-05-02T01:50:21.145Z,100124.94
2023-05-02T01:53:26.632Z,100122.84
2023-05-02T01:56:33.302Z,100126.88
2023-05-02T01:59:37.905Z,100120.56
2023-05-02T02:02:46.654Z,100123.13
2023-05-02T02:05:53.060Z,100114.63
2023-05-02T02:08:55.934Z,100117.97
2023-05-02T02:12:03.370Z,100110.72
2023-05-02T02:15:27.413Z,100107.72
2023-05-02T02:18:39.191Z,100107.44
2023-05-02T02:21:50.219Z,100113.00
2023-05-02T02:24:54.503Z,100108.75
2023-05-02T02:27:58.169Z,100101.91
2023-05-02T02:31:00.967Z,100110.06
2023-05-02T02:34:05.090Z,100114.13
2023-05-02T02:37:19.167Z,100103.03
2023-05-02T02:40:34.679Z,100108.19
2023-05-02T02:43:52.413Z,100112.09
2023-05-02T02:47:10.684Z,100113.12
2023-05-02T02:50:18.996Z,100105.75
2023-05-02T02:53:31.038Z,100109.06
2023-05-02T02:56:40.422Z,100105.94
2023-05-02T02:59:55.785Z,100110.09
2023-05-02T03:03:00.429Z,100103.41
2023-05-02T03:06:04.809Z,100105.19
2023-05-02T03:09:15.148Z,100108.84
2023-05-02T03:12:18.364Z,100110.56
2023-05-02T03:15:43.272Z,100108.50
2023-05-02T03:18:46.507Z,100119.34
2023-05-02T03:21:50.118Z,100113.06
2023-05-02T03:24:54.430Z,100112.53
2023-05-02T03:28:00.213Z,100116.91
2023-05-02T03:31:03.722Z,100116.91
2023-05-02T03:34:07.240Z,100119.25
2023-05-02T03:37:11.049Z,100122.91
2023-05-02T03:40:14.838Z,100122.28
2023-05-02T03:43:18.093Z,100130.12
2023-05-02T03:46:21.507Z,100127.00
2023-05-02T03:49:24.977Z,100129.88
2023-05-02T03:52:28.720Z,100133.72
2023-05-02T03:55:32.251Z,100129.66
2023-05-02T03:58:38.660Z,100128.09
2023-05-02T04:01:41.553Z,100134.66
2023-05-02T04:04:45.494Z,100135.16
2023-05-02T04:07:49.751Z,100139.78
2023-05-02T04:10:53.084Z,100143.47
2023-05-02T04:13:56.852Z,100144.28
2023-05-02T04:16:59.867Z,100149.16
2023-05-02T04:20:05.560Z,100150.13
2023-05-02T04:23:09.202Z,100145.81
2023-05-02T04:26:11.883Z,100152.78
2023-05-02T04:29:15.356Z,100157.09
2023-05-02T04:32:18.771Z,100165.97
2023-05-02T04:35:21.901Z,100156.75
2023-05-02T04:38:24.695Z,100170.34
2023-05-02T04:41:28.199Z,100165.72
2023-05-02T04:44:31.520Z,100165.81
2023-05-02T04:47:34.450Z,100169.69
2023-05-02T04:50:37.423Z,100170.50
2023-05-02T04:53:40.482Z,100166.78
2023-05-02T04:56:43.252Z,100173.00
2023-05-02T04:59:47.362Z,100175.09
2023-05-02T05:02:50.067Z,100171.12
2023-05-02T05:05:53.060Z,100177.91
2023-05-02T05:08:57.119Z,100175.72
2023-05-02T05:12:00.676Z,100175.03
2023-05-02T05:15:04.476Z,100177.50
2023-05-02T05:18:07.674Z,100178.66
2023-05-02T05:21:11.088Z,100176.50
2023-05-02T05:24:16.462Z,100185.87
2023-05-02T05:27:19.406Z,100176.66
2023-05-02T05:30:23.233Z,100184.28
2023-05-02T05:33:26.112Z,100180.34
2023-05-02T05:36:29.251Z,100191.25
2023-05-02T05:39:32.639Z,100194.69
2023-05-02T05:42:36.226Z,100201.22
2023-05-02T05:45:39.627Z,100207.78
2023-05-02T05:48:43.032Z,100213.69
2023-05-02T05:51:47.670Z,100221.41
2023-05-02T05:54:55.737Z,100221.94
2023-05-02T05:57:58.921Z,100219.63
2023-05-02T06:01:02.169Z,100222.00
2023-05-02T06:04:05.706Z,100223.69
2023-05-02T06:07:09.407Z,100217.63
2023-05-02T06:10:12.500Z,100217.25
2023-05-02T06:13:15.830Z,100220.56
2023-05-02T06:16:20.192Z,100230.47
2023-05-02T06:19:22.771Z,100223.66
2023-05-02T06:22:25.973Z,100223.19
2023-05-02T06:25:29.047Z,100228.34
2023-05-02T06:28:32.228Z,100218.91
2023-05-02T06:31:34.819Z,100222.56
2023-05-02T06:34:37.661Z,100219.13
2023-05-02T06:37:40.283Z,100231.75
2023-05-02T06:40:45.308Z,100229.03
2023-05-02T06:43:47.871Z,100232.53
2023-05-02T06:46:50.782Z,100235.22
2023-05-02T06:49:53.860Z,100232.00
2023-05-02T06:52:56.649Z,100231.44
2023-05-02T06:55:59.763Z,100230.00
2023-05-02T06:59:02.940Z,100237.56
2023-05-02T07:02:06.829Z,100226.53
2023-05-02T07:05:10.404Z,100235.72
2023-05-02T07:08:13.098Z,100233.87
2023-05-02T07:11:16.177Z,100224.53
2023-05-02T07:14:18.845Z,100234.19
2023-05-02T07:17:22.461Z,100235.75
2023-05-02T07:20:25.263Z,100238.78
2023-05-02T07:23:28.439Z,100239.28
2023-05-02T07:26:31.350Z,100238.16
2023-05-02T07:29:34.214Z,100239.00
2023-05-02T07:32:37.016Z,100242.06
2023-05-02T07:35:39.834Z,100244.66
2023-05-02T07:38:42.670Z,100250.28
2023-05-02T07:41:50.061Z,100242.28
2023-05-02T07:44:52.534Z,100248.53
2023-05-02T07:47:55.802Z,100250.66
2023-05-02T07:51:06.979Z,100247.91
2023-05-02T07:54:20.334Z,100255.59
2023-05-02T07:57:23.636Z,100245.66
2023-05-02T08:00:26.639Z,100240.50
2023-05-02T08:03:31.042Z,100252.22
2023-05-02T08:06:35.069Z,100248.97
2023-05-02T08:09:40.734Z,100251.84
2023-05-02T08:12:43.826Z,100244.75
2023-05-02T08:15:46.913Z,100245.62
2023-05-02T08:18:49.619Z,100258.09
2023-05-02T08:21:54.263Z,100255.72
2023-05-02T08:24:56.796Z,100256.19
2023-05-02T08:28:01.724Z,100247.37
2023-05-02T08:31:04.432Z,100249.97
2023-05-02T08:34:07.335Z,100251.66
2023-05-02T08:37:12.090Z,100248.28
2023-05-02T08:40:22.111Z,100239.34
2023-05-02T08:43:33.474Z,100243.87
2023-05-02T08:46:37.277Z,100230.44
2023-05-02T08:49:41.128Z,100240.00
2023-05-02T08:52:46.116Z,100237.53
2023-05-02T08:55:51.015Z,100235.06
2023-05-02T08:58:56.482Z,100227.75
2023-05-02T09:02:10.441Z,100239.16
2023-05-02T09:05:19.339Z,100254.59
2023-05-02T09:08:23.857Z,100228.78
2023-05-02T09:11:26.709Z,100221.13
2023-05-02T09:14:29.581Z,100222.41
2023-05-02T09:17:40.601Z,100223.84
2023-05-02T09:20:44.949Z,100215.75
2023-05-02T09:23:49.309Z,100228.56
2023-05-02T09:27:03.054Z,100223.16
2023-05-02T09:30:30.843Z,100223.87
2023-05-02T09:33:34.512Z,100223.87
2023-05-02T09:36:41.759Z,100218.38
2023-05-02T09:40:11.683Z,100215.41
2023-05-02T09:43:17.160Z,100215.28
2023-05-02T09:46:20.255Z,100224.53
2023-05-02T09:49:45.838Z,100216.53
2023-05-02T09:53:05.119Z,100228.41
2023-05-02T09:56:09.397Z,100234.72
2023-05-02T09:59:14.586Z,100226.78
2023-05-02T10:02:18.296Z,100212.75
2023-05-02T10:05:21.532Z,100227.00
2023-05-02T10:08:28.667Z,100225.25
2023-05-02T10:11:33.631Z,100228.94
2023-05-02T10:14:41.648Z,100221.94
2023-05-02T10:17:49.257Z,100217.72
2023-05-02T10:20:58.719Z,100222.75
2023-05-02T10:24:03.629Z,100207.53
2023-05-02T10:27:06.935Z,100214.38
2023-05-02T10:30:10.793Z,100205.03
2023-05-02T10:33:14.833Z,100200.31
2023-05-02T10:36:22.433Z,100196.78
2023-05-02T10:39:25.244Z,100192.56
2023-05-02T10:42:30.355Z,100194.03
2023-05-02T10:45:37.414Z,100186.50
2023-05-02T10:48:40.775Z,100187.03
2023-05-02T10:51:43.756Z,100182.72
2023-05-02T10:54:47.394Z,100183.91
2023-05-02T10:57:59.190Z,100176.81
2023-05-02T11:01:37.948Z,100176.53
2023-05-02T11:05:08.314Z,100175.31
2023-05-02T11:08:19.451Z,100170.66
2023-05-02T11:11:46.933Z,100167.28
2023-05-02T11:14:50.080Z,100172.03
2023-05-02T11:18:09.165Z,100167.06
2023-05-02T11:21:28.585Z,100155.44
2023-05-02T11:24:44.809Z,100154.88
2023-05-02T11:27:49.279Z,100157.84
2023-05-02T11:30:51.900Z,100158.44
2023-05-02T11:33:59.352Z,100160.25
2023-05-02T11:37:11.702Z,100145.44
2023-05-02T11:40:15.380Z,100143.16
2023-05-02T11:43:19.936Z,100154.44
2023-05-02T11:46:23.107Z,100138.38
2023-05-02T11:49:25.894Z,100145.28
2023-05-02T11:52:28.862Z,100155.75
2023-05-02T11:55:31.545Z,100153.41
2023-05-02T11:58:34.967Z,100142.94
2023-05-02T12:01:37.526Z,100138.06
2023-05-02T12:04:46.430Z,100138.06
2023-05-02T12:07:49.485Z,100136.03
2023-05-02T12:10:53.918Z,100133.19
2023-05-02T12:13:58.972Z,100142.72
2023-05-02T12:17:03.888Z,100133.13
2023-05-02T12:20:08.932Z,100129.69
2023-05-02T12:23:12.241Z,100131.31
2023-05-02T12:26:17.628Z,100136.75
2023-05-02T12:29:20.875Z,100135.13
2023-05-02T12:32:34.550Z,100130.59
2023-05-02T12:35:37.764Z,100127.97
2023-05-02T12:38:41.974Z,100132.53
2023-05-02T12:41:46.277Z,100128.16
2023-05-02T12:44:52.453Z,100121.31
2023-05-02T12:47:55.997Z,100116.44
2023-05-02T12:50:58.620Z,100121.31
2023-05-02T12:54:01.906Z,100126.41
2023-05-02T12:57:04.635Z,100126.81
2023-05-02T13:00:08.499Z,100118.09
2023-05-02T13:03:11.228Z,100124.75
2023-05-02T13:06:14.105Z,100119.47
2023-05-02T13:09:20.099Z,100120.41
2023-05-02T13:12:23.509Z,100113.94
2023-05-02T13:15:26.680Z,100106.62
2023-05-02T13:18:29.672Z,100111.03
2023-05-02T13:21:32.572Z,100103.53
2023-05-02T13:24:35.414Z,100116.47
2023-05-02T13:27:38.209Z,100117.75
2023-05-02T13:30:41.390Z,100104.09
2023-05-02T13:33:43.980Z,100099.56
2023-05-02T13:36:46.939Z,100107.56
2023-05-02T13:39:49.416Z,100104.78
2023-05-02T13:42:52.244Z,100108.75
2023-05-02T13:45:54.966Z,100103.06
2023-05-02T13:48:58.335Z,100095.84
2023-05-02T13:52:01.016Z,100114.19
2023-05-02T13:55:04.980Z,100091.72
2023-05-02T13:58:08.325Z,100096.38
2023-05-02T14:01:11.242Z,100098.53
2023-05-02T14:04:15.049Z,100098.31
2023-05-02T14:07:17.796Z,100103.91
2023-05-02T14:10:20.828Z,100100.72
2023-05-02T14:13:26.200Z,100096.97
2023-05-02T14:16:30.121Z,100104.00
2023-05-02T14:19:34.024Z,100099.62
2023-05-02T14:22:36.900Z,100097.87
2023-05-02T14:25:39.434Z,100098.41
2023-05-02T14:28:42.536Z,100102.56
2023-05-02T14:31:49.073Z,100103.78
2023-05-02T14:34:51.823Z,100094.59
2023-05-02T14:37:54.358Z,100096.62
2023-05-02T14:40:57.338Z,100106.62
2023-05-02T14:44:00.001Z,100103.25
2023-05-02T14:47:03.118Z,100101.19
2023-05-02T14:50:06.635Z,100104.03
2023-05-02T14:53:09.716Z,100107.78
2023-05-02T14:56:14.779Z,100097.41
2023-05-02T14:59:17.639Z,100101.37
2023-05-02T15:02:21.837Z,100103.44
2023-05-02T15:05:25.055Z,100102.50
2023-05-02T15:08:29.465Z,100106.25
2023-05-02T15:11:32.520Z,100102.94
2023-05-02T15:14:35.402Z,100100.41
2023-05-02T15:17:38.315Z,100099.66
2023-05-02T15:20:41.060Z,100099.91
2023-05-02T15:23:44.113Z,100092.47
2023-05-02T15:26:46.994Z,100090.78
2023-05-02T15:29:50.348Z,100093.84
2023-05-02T15:32:52.978Z,100087.78
2023-05-02T15:36:00.727Z,100093.12
2023-05-02T15:39:04.578Z,100099.09
2023-05-02T15:42:08.568Z,100087.38
2023-05-02T15:45:13.349Z,100087.56
2023-05-02T15:48:16.259Z,100080.19
2023-05-02T15:51:19.007Z,100093.84
2023-05-02T15:54:22.390Z,100086.16
2023-05-02T15:57:26.275Z,100083.78
2023-05-02T16:00:29.303Z,100088.09
2023-05-02T16:03:34.562Z,100082.69
2023-05-02T16:06:37.194Z,100091.78
2023-05-02T16:09:41.791Z,100072.97
2023-05-02T16:12:44.300Z,100079.19
2023-05-02T16:15:49.360Z,100091.91
2023-05-02T16:18:52.234Z,100086.28
2023-05-02T16:21:55.273Z,100085.63
2023-05-02T16:24:58.641Z,100091.06
2023-05-02T16:28:01.624Z,100085.88
2023-05-02T16:31:10.958Z,100073.50
2023-05-02T16:34:14.121Z,100086.94
2023-05-02T16:37:17.232Z,100084.25
2023-05-02T16:40:20.414Z,100079.69
2023-05-02T16:43:23.695Z,100088.72
2023-05-02T16:46:27.455Z,100081.09
2023-05-02T16:49:30.036Z,100083.63
2023-05-02T16:52:34.232Z,100084.37
2023-05-02T16:55:36.780Z,100083.28
2023-05-02T16:58:39.914Z,100082.09
2023-05-02T17:01:42.593Z,100085.22
2023-05-02T17:04:48.596Z,100097.28
2023-05-02T17:07:51.539Z,100100.44
2023-05-02T17:10:54.537Z,100099.16
2023-05-02T17:13:57.248Z,100101.37
2023-05-02T17:17:01.339Z,100105.44
2023-05-02T17:20:06.408Z,100110.84
2023-05-02T17:23:12.345Z,100109.06
2023-05-02T17:26:15.614Z,100114.87
2023-05-02T17:29:18.683Z,100128.00
2023-05-02T17:32:21.905Z,100123.19
2023-05-02T17:35:24.836Z,100119.53
2023-05-02T17:38:27.514Z,100122.41
2023-05-02T17:41:31.401Z,100126.78
2023-05-02T17:44:36.867Z,100130.69
2023-05-02T17:47:39.885Z,100138.56
2023-05-02T17:50:42.986Z,100128.37
2023-05-02T17:53:51.576Z,100131.03
2023-05-02T17:56:54.483Z,100145.44
2023-05-02T17:59:59.606Z,100154.69
2023-05-02T18:03:02.596Z,100144.91
2023-05-02T18:06:06.129Z,100142.37
2023-05-02T18:09:09.892Z,100145.91
2023-05-02T18:12:13.355Z,100149.78
2023-05-02T18:15:16.567Z,100149.56
2023-05-02T18:18:19.922Z,100153.81
2023-05-02T18:21:23.349Z,100159.19
2023-05-02T18:24:31.661Z,100154.22
2023-05-02T18:27:34.458Z,100169.31
2023-05-02T18:30:38.077Z,100176.53
2023-05-02T18:33:42.043Z,100177.06
2023-05-02T18:36:47.860Z,100173.03
2023-05-02T18:39:50.564Z,100182.38
2023-05-02T18:42:53.902Z,100193.09
2023-05-02T18:45:58.483Z,100183.09
2023-05-02T18:49:10.585Z,100188.41
2023-05-02T18:52:13.506Z,100195.44
2023-05-02T18:55:17.285Z,100194.41
2023-05-02T18:58:20.222Z,100203.13
2023-05-02T19:01:24.594Z,100211.81
2023-05-02T19:04:31.937Z,100210.31
2023-05-02T19:07:36.283Z,100220.84
2023-05-02T19:10:41.390Z,100231.50
2023-05-02T19:13:44.391Z,100242.06
2023-05-02T19:16:49.753Z,100254.69
2023-05-02T19:19:53.737Z,100258.03
2023-05-02T19:23:14.699Z,100265.28
2023-05-02T19:26:20.930Z,100248.16
2023-05-02T19:29:24.173Z,100255.03
2023-05-02T19:32:27.748Z,100251.06
2023-05-02T19:35:34.040Z,100240.69
2023-05-02T19:38:37.267Z,100239.66
2023-05-02T19:41:44.304Z,100234.78
2023-05-02T19:44:48.403Z,100236.41
2023-05-02T19:47:52.800Z,100230.91
2023-05-02T19:50:55.977Z,100237.75
2023-05-02T19:53:58.986Z,100240.91
2023-05-02T19:57:03.057Z,100243.56
2023-05-02T20:00:06.573Z,100251.16
2023-05-02T20:03:15.403Z,100251.78
2023-05-02T20:06:18.493Z,100255.56
2023-05-02T20:09:21.639Z,100263.00
2023-05-02T20:12:24.476Z,100268.38
2023-05-02T20:15:27.608Z,100266.72
2023-05-02T20:18:33.753Z,100279.44
2023-05-02T20:21:36.487Z,100278.41
2023-05-02T20:24:39.676Z,100277.44
2023-05-02T20:27:42.971Z,100281.91
2023-05-02T20:30:46.114Z,100285.00
2023-05-02T20:33:48.660Z,100291.56
2023-05-02T20:36:52.559Z,100283.81
2023-05-02T20:39:56.286Z,100285.09
2023-05-02T20:43:01.866Z,100291.47
2023-05-02T20:46:10.259Z,100273.31
2023-05-02T20:49:13.331Z,100269.09
2023-05-02T20:52:16.199Z,100273.94
2023-05-02T20:55:20.317Z,100274.28
2023-05-02T20:58:26.351Z,100273.28
2023-05-02T21:01:30.438Z,100287.91
2023-05-02T21:04:34.312Z,100285.84
2023-05-02T21:07:37.040Z,100283.63
2023-05-02T21:10:39.773Z,100284.56
2023-05-02T21:13:43.191Z,100280.47
2023-05-02T21:16:49.826Z,100275.78
2023-05-02T21:19:59.748Z,100282.13
2023-05-02T21:23:02.482Z,100295.97
2023-05-02T21:26:05.638Z,100297.66
2023-05-02T21:29:11.119Z,100301.59
2023-05-02T21:32:17.058Z,100296.72
2023-05-02T21:35:19.804Z,100301.06
2023-05-02T21:38:22.641Z,100301.34
2023-05-02T21:41:25.516Z,100307.81
2023-05-02T21:44:28.344Z,100303.56
2023-05-02T21:47:32.680Z,100314.38
2023-05-02T21:50:35.803Z,100316.78
2023-05-02T21:53:38.508Z,100323.22
2023-05-02T21:56:41.327Z,100322.03
2023-05-02T21:59:43.875Z,100325.44
2023-05-02T22:02:46.984Z,100341.41
2023-05-02T22:05:49.925Z,100352.78
2023-05-02T22:08:52.581Z,100370.38
2023-05-02T22:11:55.689Z,100368.41
2023-05-02T22:14:59.639Z,100378.34
2023-05-02T22:18:06.669Z,100389.25
2023-05-02T22:21:12.166Z,100379.22
2023-05-02T22:24:16.875Z,100382.72
2023-05-02T22:27:19.383Z,100369.13
2023-05-02T22:30:22.298Z,100369.63
2023-05-02T22:33:25.392Z,100373.56
2023-05-02T22:36:28.235Z,100386.84
2023-05-02T22:39:30.712Z,100376.34
2023-05-02T22:42:34.397Z,100377.91
2023-05-02T22:45:37.583Z,100368.53
2023-05-02T22:48:40.548Z,100360.13
2023-05-02T22:51:43.527Z,100359.97
2023-05-02T22:54:46.367Z,100359.28
2023-05-02T22:57:48.903Z,100367.97
2023-05-02T23:00:52.071Z,100376.50
2023-05-02T23:03:54.854Z,100373.44
2023-05-02T23:06:57.812Z,100384.22
2023-05-02T23:10:01.323Z,100376.66
2023-05-02T23:13:05.329Z,100375.25
2023-05-02T23:16:07.933Z,100375.81
2023-05-02T23:19:12.307Z,100378.81
2023-05-02T23:22:15.096Z,100373.28
2023-05-02T23:25:18.782Z,100379.00
2023-05-02T23:28:21.534Z,100369.66
2023-05-02T23:31:24.475Z,100362.50
2023-05-02T23:34:27.300Z,100372.28
2023-05-02T23:37:30.231Z,100370.19
2023-05-02T23:40:34.820Z,100367.94
2023-05-02T23:43:37.928Z,100358.28
2023-05-02T23:46:41.486Z,100356.28
2023-05-02T23:49:44.503Z,100352.25
2023-05-02T23:52:47.100Z,100357.28
2023-05-02T23:55:49.919Z,100351.81
2023-05-02T23:58:52.547Z,100351.97
